Time;durP1;ratioP1;P1;durP2;ratioP2;P2;SDS_P1;SDS_P2;PMS_P1;PMS_P2;Temp;Humidity;BMP_temperature;BMP_pressure;BME280_temperature;BME280_humidity;BME280_pressure;Samples;Min_cycle;Max_cycle;Signal;HPM_P1;HPM_P2
2022/03/11 00:02:42;;;;;;;10.48;4.90;;;;;;;3.30;72.05;102187.56;6226571;28;20050;-79
2022/03/11 00:05:44;;;;;;;8.73;3.67;;;;;;;3.31;72.15;102191.00;6227042;28;20053;-79
2022/03/11 00:08:45;;;;;;;9.18;4.47;;;;;;;3.26;70.79;102183.22;6226966;28;20058;-79
2022/03/11 00:11:48;;;;;;;10.10;4.38;;;;;;;3.20;71.45;102184.97;6226424;28;20057;-78
2022/03/11 00:14:49;;;;;;;12.65;4.25;;;;;;;3.19;71.41;102184.09;6226521;28;20046;-78
2022/03/11 00:17:51;;;;;;;9.55;3.97;;;;;;;3.17;72.00;102185.81;6205339;28;20046;-78
2022/03/11 00:20:52;;;;;;;12.23;4.97;;;;;;;3.12;72.15;102184.09;6162480;28;20059;-78
2022/03/11 00:23:54;;;;;;;9.45;4.28;;;;;;;3.11;71.81;102182.34;6180376;28;20702;-79
2022/03/11 00:26:56;;;;;;;9.13;4.93;;;;;;;3.00;72.06;102184.97;6185184;28;20049;-79
2022/03/11 00:29:58;;;;;;;14.48;4.70;;;;;;;2.95;70.77;102179.75;6180122;28;20417;-78
2022/03/11 00:33:00;;;;;;;10.00;4.13;;;;;;;3.00;71.86;102182.38;6161856;28;20081;-78
2022/03/11 00:36:02;;;;;;;8.98;3.72;;;;;;;2.89;70.67;102184.94;6212972;28;20413;-78
2022/03/11 00:39:03;;;;;;;9.93;3.92;;;;;;;2.84;71.81;102185.78;6226307;28;20061;-78
2022/03/11 00:42:06;;;;;;;9.68;4.00;;;;;;;2.72;71.52;102176.25;6225148;28;20057;-79
2022/03/11 00:45:09;;;;;;;9.30;4.18;;;;;;;2.72;71.55;102182.28;6225247;28;20049;-78
2022/03/11 00:48:10;;;;;;;7.35;3.90;;;;;;;2.74;71.98;102179.72;6226015;28;20049;-79
2022/03/11 00:51:11;;;;;;;9.88;4.25;;;;;;;2.75;71.06;102173.66;6225245;28;20050;-78
2022/03/11 00:54:13;;;;;;;9.43;4.28;;;;;;;2.69;71.36;102178.84;6226232;28;20050;-78
2022/03/11 00:57:16;;;;;;;10.90;3.90;;;;;;;2.62;70.46;102177.09;6153353;28;20055;-78
2022/03/11 01:00:18;;;;;;;8.98;3.78;;;;;;;2.61;70.50;102176.22;6223251;28;20050;-78
2022/03/11 01:03:19;;;;;;;5.70;3.33;;;;;;;2.57;70.56;102177.06;6225285;28;20061;-79
2022/03/11 01:06:20;;;;;;;6.82;3.55;;;;;;;2.64;71.02;102167.59;6225661;28;20061;-77
2022/03/11 01:09:22;;;;;;;8.05;3.55;;;;;;;2.55;70.25;102163.25;6225390;28;20054;-78
2022/03/11 01:12:24;;;;;;;10.73;4.30;;;;;;;2.46;70.86;102168.41;6224792;28;20513;-79
2022/03/11 01:15:26;;;;;;;7.63;3.67;;;;;;;2.42;71.41;102166.66;6225317;28;20050;-78
2022/03/11 01:18:28;;;;;;;16.33;5.30;;;;;;;2.42;71.45;102161.47;6225580;28;20054;-79
2022/03/11 01:21:29;;;;;;;9.68;4.40;;;;;;;2.40;71.36;102150.22;6224720;28;20060;-78
2022/03/11 01:24:30;;;;;;;7.60;3.05;;;;;;;2.44;70.18;102155.41;6225100;28;20041;-78
2022/03/11 01:27:33;;;;;;;9.73;3.60;;;;;;;2.45;70.83;102148.50;6219586;28;20046;-78
2022/03/11 01:30:35;;;;;;;10.05;3.35;;;;;;;2.36;70.21;102153.66;6148499;28;20059;-79
2022/03/11 01:33:36;;;;;;;10.60;4.50;;;;;;;2.29;70.59;102148.44;6225050;28;20053;-78
2022/03/11 01:36:37;;;;;;;6.90;3.17;;;;;;;2.34;71.14;102147.59;6154589;28;20424;-79
2022/03/11 01:39:39;;;;;;;7.28;4.15;;;;;;;2.24;71.25;102136.34;6224814;28;20058;-78
2022/03/11 01:42:42;;;;;;;9.27;3.83;;;;;;;2.25;71.33;102135.47;6224216;28;20053;-78
2022/03/11 01:45:43;;;;;;;8.48;3.83;;;;;;;2.21;71.13;102131.13;6196209;28;20042;-78
2022/03/11 01:48:45;;;;;;;6.97;3.47;;;;;;;2.21;72.05;102129.41;6183313;28;20084;-79
2022/03/11 01:51:47;;;;;;;11.15;4.03;;;;;;;2.20;71.90;102125.09;6223641;28;20559;-78
2022/03/11 01:54:51;;;;;;;7.70;3.38;;;;;;;2.19;71.84;102117.31;6168137;28;20038;-78
2022/03/11 01:57:54;;;;;;;9.30;4.28;;;;;;;2.12;72.03;102113.81;6223669;28;20050;-79
2022/03/11 02:00:55;;;;;;;12.38;4.57;;;;;;;2.17;71.24;102113.81;6223677;28;20049;-78
2022/03/11 02:03:57;;;;;;;9.20;3.58;;;;;;;2.09;72.05;102113.81;6224395;28;20046;-78
2022/03/11 02:06:58;;;;;;;9.20;3.88;;;;;;;2.05;72.30;102113.81;6224185;28;20123;-78
2022/03/11 02:09:59;;;;;;;9.73;3.53;;;;;;;2.01;72.66;102110.31;6223728;28;20069;-78
2022/03/11 02:13:06;;;;;;;12.48;4.03;;;;;;;1.94;72.63;102105.97;6223460;28;20054;-79
2022/03/11 02:16:07;;;;;;;8.48;4.05;;;;;;;1.92;73.06;102116.34;6224062;28;20050;-78
2022/03/11 02:19:16;;;;;;;6.85;3.13;;;;;;;1.94;72.94;102114.59;6317244;27;20909;-77
2022/03/11 02:22:23;;;;;;;7.47;3.63;;;;;;;1.87;73.28;102110.28;6317905;28;20506;-78
2022/03/11 02:25:25;;;;;;;7.35;3.63;;;;;;;1.87;72.25;102112.00;6294231;28;20048;-77
2022/03/11 02:28:32;;;;;;;11.20;4.03;;;;;;;1.84;72.94;102102.47;6304055;28;20055;-78
2022/03/11 02:31:34;;;;;;;10.13;3.80;;;;;;;1.84;72.40;102102.47;6318204;28;20060;-78
2022/03/11 02:34:36;;;;;;;6.20;2.63;;;;;;;1.80;72.01;102107.63;6318792;28;20052;-78
2022/03/11 02:37:38;;;;;;;12.23;4.05;;;;;;;1.71;72.39;102108.44;6319135;28;20082;-77
2022/03/11 02:40:41;;;;;;;7.45;3.03;;;;;;;1.74;72.35;102100.69;6318263;28;20044;-78
2022/03/11 02:43:42;;;;;;;7.22;3.47;;;;;;;1.84;71.80;102102.47;6318804;28;20059;-78
2022/03/11 02:46:44;;;;;;;5.05;2.53;;;;;;;1.85;72.20;102109.38;6318225;28;20054;-78
2022/03/11 02:49:45;;;;;;;8.73;2.92;;;;;;;1.68;72.67;102101.53;6317985;28;20044;-77
2022/03/11 02:52:46;;;;;;;10.00;4.45;;;;;;;1.64;72.27;102119.66;6317909;28;20052;-77
2022/03/11 02:55:49;;;;;;;6.45;3.17;;;;;;;1.74;71.55;102105.88;6317774;28;20040;-77
2022/03/11 02:58:50;;;;;;;8.02;3.80;;;;;;;1.75;71.42;102112.78;6317977;28;20051;-78
2022/03/11 03:01:52;;;;;;;8.48;3.67;;;;;;;1.72;70.70;102100.66;6316967;28;20059;-77
2022/03/11 03:04:53;;;;;;;9.52;3.50;;;;;;;1.62;71.21;102098.91;6317743;28;20061;-78
2022/03/11 03:07:55;;;;;;;10.70;3.20;;;;;;;1.62;72.21;102095.44;6317955;28;20048;-78
2022/03/11 03:10:57;;;;;;;7.80;3.63;;;;;;;1.53;71.48;102097.13;6317273;28;20048;-77
2022/03/11 03:13:59;;;;;;;5.30;2.85;;;;;;;1.46;71.10;102090.19;6317670;28;20048;-77
2022/03/11 03:17:00;;;;;;;8.18;3.20;;;;;;;1.44;71.55;102091.03;6317167;28;20044;-78
2022/03/11 03:20:02;;;;;;;10.82;3.08;;;;;;;1.51;71.09;102085.03;6317194;28;20055;-77
2022/03/11 03:23:03;;;;;;;8.20;3.20;;;;;;;1.46;70.46;102091.91;6316785;28;20059;-78
2022/03/11 03:26:06;;;;;;;7.22;3.50;;;;;;;1.45;71.03;102096.25;6317261;28;20044;-78
2022/03/11 03:29:07;;;;;;;6.50;3.25;;;;;;;1.33;71.07;102090.97;6308604;28;20515;-77
2022/03/11 03:32:09;;;;;;;5.80;2.65;;;;;;;1.23;71.96;102095.22;6299728;28;20048;-78
2022/03/11 03:35:11;;;;;;;9.70;4.45;;;;;;;1.20;72.38;102095.19;6300226;28;20044;-77
2022/03/11 03:38:12;;;;;;;9.48;2.88;;;;;;;1.19;72.78;102097.78;6300124;28;20052;-77
2022/03/11 03:41:15;;;;;;;10.73;4.07;;;;;;;1.13;72.77;102087.38;6299349;28;20056;-78
2022/03/11 03:44:17;;;;;;;10.98;3.53;;;;;;;1.07;72.08;102095.97;6300000;28;20059;-78
2022/03/11 03:47:18;;;;;;;5.65;2.60;;;;;;;1.00;72.85;102100.25;6299782;28;20059;-77
2022/03/11 03:50:20;;;;;;;6.88;2.47;;;;;;;0.94;72.59;102099.31;6299427;28;20048;-77
2022/03/11 03:53:21;;;;;;;4.88;1.98;;;;;;;0.89;72.47;102091.50;6299648;28;20463;-78
2022/03/11 03:56:24;;;;;;;6.85;3.40;;;;;;;0.83;72.86;102090.59;6299786;28;20127;-78
2022/03/11 03:59:25;;;;;;;5.75;4.15;;;;;;;0.86;73.88;102088.03;6299701;28;20510;-77
2022/03/11 04:02:26;;;;;;;5.05;2.83;;;;;;;0.92;72.32;102083.78;6298785;28;20059;-77
2022/03/11 04:05:28;;;;;;;6.57;2.88;;;;;;;0.86;72.59;102081.13;6299343;28;20047;-77
2022/03/11 04:08:30;;;;;;;8.55;3.35;;;;;;;0.72;72.93;102083.59;6293346;28;20154;-77
2022/03/11 04:11:33;;;;;;;7.53;2.72;;;;;;;0.74;72.85;102078.44;6285082;28;20052;-78
2022/03/11 04:14:34;;;;;;;6.82;2.70;;;;;;;0.68;72.84;102076.69;6298670;28;20059;-77
2022/03/11 04:17:35;;;;;;;6.45;2.70;;;;;;;0.65;73.00;102066.31;6289182;28;20115;-77
2022/03/11 04:20:37;;;;;;;6.10;2.58;;;;;;;0.57;73.12;102056.72;6292039;28;20555;-77
2022/03/11 04:23:38;;;;;;;6.97;2.88;;;;;;;0.54;73.41;102051.53;6299117;28;20048;-78
2022/03/11 04:26:43;;;;;;;7.97;3.40;;;;;;;0.51;73.78;102057.56;6298751;28;20060;-77
2022/03/11 04:29:44;;;;;;;7.03;2.40;;;;;;;0.54;73.46;102047.22;6298110;28;20048;-77
2022/03/11 04:32:46;;;;;;;7.15;3.53;;;;;;;0.46;74.35;102052.34;6293258;28;20063;-77
2022/03/11 04:35:47;;;;;;;10.38;3.60;;;;;;;0.40;73.74;102049.69;6284038;28;20052;-77
2022/03/11 04:38:48;;;;;;;3.25;2.20;;;;;;;0.39;73.96;102047.94;6284818;28;20044;-78
2022/03/11 04:41:52;;;;;;;4.47;2.58;;;;;;;0.46;73.33;102033.38;6282686;28;20041;-77
2022/03/11 04:44:54;;;;;;;5.72;2.67;;;;;;;0.44;73.76;102033.34;6286066;28;20049;-78
2022/03/11 04:47:55;;;;;;;5.68;2.78;;;;;;;0.42;74.10;102041.97;6285568;28;20037;-78
2022/03/11 04:50:57;;;;;;;7.75;2.85;;;;;;;0.32;74.01;102043.59;6284611;28;20394;-77
2022/03/11 04:53:59;;;;;;;3.58;2.15;;;;;;;0.31;74.71;102039.25;6281111;28;20060;-78
2022/03/11 04:57:01;;;;;;;10.32;3.15;;;;;;;0.36;74.06;102039.28;6273520;28;20045;-77
2022/03/11 05:00:03;;;;;;;6.22;2.75;;;;;;;0.38;74.54;102040.19;6272886;28;20049;-77
2022/03/11 05:03:05;;;;;;;7.70;2.28;;;;;;;0.35;74.17;102040.16;6286940;28;20071;-77
2022/03/11 05:06:06;;;;;;;4.20;2.33;;;;;;;0.32;74.21;102042.69;6298228;28;20495;-77
2022/03/11 05:09:08;;;;;;;4.07;2.45;;;;;;;0.29;74.06;102042.69;6297979;28;20052;-78
2022/03/11 05:12:11;;;;;;;7.45;3.05;;;;;;;0.20;73.73;102044.31;6297474;28;20051;-77
2022/03/11 05:15:13;;;;;;;7.22;3.78;;;;;;;0.17;74.75;102038.25;6297831;28;20074;-78
2022/03/11 05:18:14;;;;;;;7.25;3.05;;;;;;;0.12;75.37;102039.94;6308335;28;20044;-78
2022/03/11 05:21:15;;;;;;;6.25;2.58;;;;;;;0.06;75.49;102045.03;6310497;28;20044;-78
2022/03/11 05:24:17;;;;;;;5.65;2.53;;;;;;;0.02;75.17;102051.03;6306910;28;20048;-77
2022/03/11 05:27:19;;;;;;;5.40;3.10;;;;;;;-0.02;75.25;102045.81;6287657;28;20423;-78
2022/03/11 05:30:21;;;;;;;6.80;2.80;;;;;;;-0.02;75.61;102037.19;6276469;28;20511;-77
2022/03/11 05:33:22;;;;;;;9.20;3.05;;;;;;;-0.09;75.42;102048.28;6272569;28;20603;-77
2022/03/11 05:36:24;;;;;;;4.18;2.45;;;;;;;-0.09;75.80;102044.03;6272623;28;20064;-77
2022/03/11 05:39:25;;;;;;;4.72;2.47;;;;;;;-0.12;76.22;102046.56;6285748;28;20052;-76
2022/03/11 05:42:28;;;;;;;4.25;2.58;;;;;;;-0.16;77.33;102042.22;6292865;28;20075;-77
2022/03/11 05:45:29;;;;;;;5.95;2.63;;;;;;;-0.14;76.37;102037.03;6282371;28;20052;-77
2022/03/11 05:48:32;;;;;;;5.93;3.08;;;;;;;-0.21;76.56;102038.72;6296607;28;20420;-77
2022/03/11 05:51:33;;;;;;;10.23;2.85;;;;;;;-0.19;76.89;102033.53;6296100;28;20048;-77
2022/03/11 05:54:34;;;;;;;6.50;2.47;;;;;;;-0.13;76.55;102033.63;6296905;28;20049;-77
2022/03/11 05:57:37;;;;;;;6.60;2.60;;;;;;;-0.15;76.87;102037.91;6296621;28;20049;-77
2022/03/11 06:00:39;;;;;;;9.20;3.60;;;;;;;-0.17;76.10;102042.19;6296029;28;20047;-77
2022/03/11 06:03:40;;;;;;;5.20;2.72;;;;;;;-0.15;76.99;102045.66;6296588;28;20082;-77
2022/03/11 06:06:41;;;;;;;6.88;2.75;;;;;;;-0.17;76.33;102045.66;6296477;28;20048;-77
2022/03/11 06:09:43;;;;;;;7.28;3.38;;;;;;;-0.24;75.75;102043.81;6296698;28;20051;-77
2022/03/11 06:12:46;;;;;;;5.00;2.60;;;;;;;-0.22;76.20;102044.72;6288235;28;20497;-77
2022/03/11 06:15:48;;;;;;;11.70;2.65;;;;;;;-0.27;76.75;102054.13;6271380;28;20114;-77
2022/03/11 06:18:49;;;;;;;4.32;2.67;;;;;;;-0.20;76.13;102049.91;6280230;28;20056;-77
2022/03/11 06:21:51;;;;;;;6.97;3.08;;;;;;;-0.19;75.39;102060.25;6294726;28;20055;-77
2022/03/11 06:24:52;;;;;;;3.75;2.72;;;;;;;-0.16;75.64;102057.72;6296111;28;20071;-77
2022/03/11 06:27:55;;;;;;;6.15;2.28;;;;;;;-0.19;75.96;102067.13;6289450;28;20052;-77
2022/03/11 06:30:56;;;;;;;4.90;2.67;;;;;;;-0.15;75.84;102067.19;6271223;28;20053;-77
2022/03/11 06:33:59;;;;;;;5.07;2.42;;;;;;;-0.09;74.93;102075.03;6284903;28;20040;-77
2022/03/11 06:37:00;;;;;;;4.30;2.28;;;;;;;-0.08;74.77;102071.59;6296290;28;20053;-77
2022/03/11 06:40:02;;;;;;;8.30;3.00;;;;;;;-0.04;74.93;102072.50;6296171;28;20048;-77
2022/03/11 06:43:04;;;;;;;7.55;3.10;;;;;;;0.00;75.39;102084.59;6296100;28;20106;-77
2022/03/11 06:46:06;;;;;;;5.93;3.10;;;;;;;0.07;74.93;102080.34;6296423;28;20056;-77
2022/03/11 06:49:07;;;;;;;7.20;3.08;;;;;;;0.15;73.80;102076.16;6296434;28;20048;-77
2022/03/11 06:52:08;;;;;;;12.02;4.50;;;;;;;0.21;72.71;102071.03;6295618;28;20048;-77
2022/03/11 06:55:10;;;;;;;7.20;3.20;;;;;;;0.22;71.72;102070.19;6296219;28;20044;-77
2022/03/11 06:58:13;;;;;;;5.32;3.05;;;;;;;0.32;71.43;102072.03;6296132;28;20044;-77
2022/03/11 07:01:16;;;;;;;9.15;2.95;;;;;;;0.34;70.85;102065.13;6295912;28;20063;-77
2022/03/11 07:04:18;;;;;;;7.88;3.17;;;;;;;0.41;70.39;102064.38;6298036;28;20044;-77
2022/03/11 07:07:19;;;;;;;9.13;4.22;;;;;;;0.42;70.79;102067.81;6300852;28;20056;-77
2022/03/11 07:10:21;;;;;;;12.65;4.28;;;;;;;0.46;69.99;102060.09;6300075;28;20049;-76
2022/03/11 07:13:24;;;;;;;4.93;2.80;;;;;;;0.55;70.05;102072.25;6300408;28;20062;-78
2022/03/11 07:16:25;;;;;;;7.50;3.22;;;;;;;0.57;69.78;102069.66;6300627;28;20431;-77
2022/03/11 07:19:27;;;;;;;5.47;2.95;;;;;;;0.63;69.54;102069.72;6300813;28;20044;-76
2022/03/11 07:22:28;;;;;;;9.45;2.83;;;;;;;0.68;68.87;102068.94;6295895;28;20627;-76
2022/03/11 07:25:30;;;;;;;6.95;2.70;;;;;;;0.83;68.17;102067.31;6284962;28;20056;-78
2022/03/11 07:28:32;;;;;;;9.32;4.07;;;;;;;0.81;66.94;102066.41;6293204;28;20419;-77
2022/03/11 07:31:34;;;;;;;3.45;2.33;;;;;;;0.86;65.74;102056.97;6292185;28;20056;-77
2022/03/11 07:34:36;;;;;;;9.13;3.40;;;;;;;0.86;67.40;102056.97;6275202;28;20060;-77
2022/03/11 07:37:37;;;;;;;13.18;3.53;;;;;;;0.94;66.24;102047.53;6275279;28;20124;-76
2022/03/11 07:40:38;;;;;;;10.45;4.15;;;;;;;0.92;65.56;102044.97;6276916;28;20057;-76
2022/03/11 07:43:44;;;;;;;5.57;2.92;;;;;;;0.97;67.05;102045.84;6275912;28;20056;-77
2022/03/11 07:46:47;;;;;;;10.60;2.90;;;;;;;1.09;65.97;102041.59;6275466;28;20508;-76
2022/03/11 07:49:48;;;;;;;8.50;2.92;;;;;;;1.24;64.14;102042.59;6275435;28;20052;-77
2022/03/11 07:52:50;;;;;;;7.85;2.92;;;;;;;1.27;64.01;102040.03;6274830;28;20052;-77
2022/03/11 07:55:51;;;;;;;3.97;2.15;;;;;;;1.30;63.96;102043.47;6275612;28;20056;-77
2022/03/11 07:58:55;;;;;;;9.52;2.60;;;;;;;1.47;63.56;102034.06;6275147;28;20045;-76
2022/03/11 08:01:57;;;;;;;5.65;3.03;;;;;;;1.48;62.82;102035.78;6273763;28;20064;-77
2022/03/11 08:04:58;;;;;;;6.43;3.25;;;;;;;1.49;62.42;102034.94;6274959;28;20052;-77
2022/03/11 08:08:00;;;;;;;9.15;3.67;;;;;;;1.58;62.73;102042.75;6274917;28;20057;-77
2022/03/11 08:11:01;;;;;;;6.63;2.90;;;;;;;1.62;62.70;102039.31;6273928;28;20052;-77
2022/03/11 08:14:04;;;;;;;5.80;2.60;;;;;;;1.68;62.74;102026.41;6275014;28;20049;-77
2022/03/11 08:17:06;;;;;;;5.10;2.38;;;;;;;1.78;61.27;102035.94;6274914;28;20052;-76
2022/03/11 08:20:09;;;;;;;6.43;2.90;;;;;;;1.85;61.33;102026.44;6297020;28;20547;-77
2022/03/11 08:23:10;;;;;;;5.72;3.28;;;;;;;1.98;60.67;102016.97;6299373;28;20461;-77
2022/03/11 08:26:12;;;;;;;5.47;2.65;;;;;;;2.02;59.41;102018.72;6299584;28;20488;-77
2022/03/11 08:29:16;;;;;;;8.57;2.33;;;;;;;2.07;59.54;102032.56;6299005;28;20063;-77
2022/03/11 08:32:18;;;;;;;8.65;3.00;;;;;;;2.15;58.59;102015.28;6299770;28;20055;-77
2022/03/11 08:35:20;;;;;;;5.00;2.60;;;;;;;2.15;59.03;102010.09;6300638;28;20048;-77
2022/03/11 08:38:22;;;;;;;8.50;3.10;;;;;;;2.28;58.74;102011.84;6299607;28;20045;-76
2022/03/11 08:41:25;;;;;;;6.85;3.15;;;;;;;2.36;57.45;102009.25;6284143;28;20492;-75
2022/03/11 08:44:27;;;;;;;12.57;3.42;;;;;;;2.51;57.79;102009.28;6293700;28;20056;-76
2022/03/11 08:47:29;;;;;;;8.38;2.67;;;;;;;2.67;54.96;101999.75;6293664;28;20044;-76
2022/03/11 08:50:30;;;;;;;6.32;2.97;;;;;;;2.72;55.80;102010.97;6287515;28;20049;-76
2022/03/11 08:53:32;;;;;;;6.30;2.50;;;;;;;2.74;55.83;102009.28;6294283;28;20472;-76
2022/03/11 08:56:33;;;;;;;6.03;3.28;;;;;;;2.90;55.08;102006.66;6295138;28;20439;-75
2022/03/11 08:59:36;;;;;;;7.55;2.80;;;;;;;2.92;54.35;101997.13;6297722;28;20051;-75
2022/03/11 09:02:38;;;;;;;4.03;2.50;;;;;;;2.98;53.40;101994.53;6295303;28;20520;-76
2022/03/11 09:05:40;;;;;;;6.15;2.47;;;;;;;3.05;52.78;101988.47;6295667;28;20495;-75
2022/03/11 09:08:41;;;;;;;5.45;2.53;;;;;;;3.17;52.62;101991.00;6295793;28;20099;-75
2022/03/11 09:11:42;;;;;;;5.15;3.25;;;;;;;3.26;51.85;101995.31;6296741;28;20431;-75
2022/03/11 09:14:45;;;;;;;9.00;2.50;;;;;;;3.30;51.09;101986.66;6297191;28;20041;-76
2022/03/11 09:17:47;;;;;;;5.40;2.60;;;;;;;3.33;50.35;101989.25;6295168;28;20060;-75
2022/03/11 09:20:48;;;;;;;5.15;2.58;;;;;;;3.43;50.48;101980.53;6294188;28;20047;-75
2022/03/11 09:23:49;;;;;;;6.30;2.80;;;;;;;3.54;50.68;101978.78;6295140;28;20056;-75
2022/03/11 09:26:52;;;;;;;7.25;3.08;;;;;;;3.67;50.71;101979.56;6294054;28;20496;-75
2022/03/11 09:29:54;;;;;;;5.75;2.58;;;;;;;3.74;50.81;101973.47;6294736;28;20051;-75
2022/03/11 09:32:56;;;;;;;5.60;2.38;;;;;;;3.88;49.20;101962.13;6295064;28;20411;-76
2022/03/11 09:35:57;;;;;;;7.63;3.40;;;;;;;3.95;49.19;101962.09;6297035;28;20044;-77
2022/03/11 09:38:58;;;;;;;3.80;2.40;;;;;;;4.07;48.27;101954.19;6287984;28;20423;-76
2022/03/11 09:42:01;;;;;;;7.55;3.28;;;;;;;4.20;47.86;101946.28;6294172;28;20049;-76
2022/03/11 09:45:06;;;;;;;8.18;3.08;;;;;;;4.23;46.12;101947.16;6289228;28;20055;-77
2022/03/11 09:48:08;;;;;;;8.63;2.60;;;;;;;4.23;47.05;101957.56;6289354;28;20530;-76
2022/03/11 09:51:11;;;;;;;7.07;2.38;;;;;;;4.45;45.57;101950.44;6271283;28;20048;-77
2022/03/11 09:54:13;;;;;;;5.72;3.15;;;;;;;4.44;44.82;101953.88;6286621;28;20204;-77
2022/03/11 09:57:23;;;;;;;6.95;3.65;;;;;;;4.49;44.18;101949.50;6297393;28;20055;-77
2022/03/11 10:00:25;;;;;;;;;;;;;;;4.60;45.03;101941.63;6296836;28;20055;-77
2022/03/11 10:03:29;;;;;;;6.35;2.28;;;;;;;4.54;46.03;101934.72;6276112;28;19948;-78
2022/03/11 10:06:38;;;;;;;12.00;3.03;;;;;;;4.60;44.96;101939.00;6273083;28;20501;-78
2022/03/11 10:09:39;;;;;;;8.07;2.50;;;;;;;4.68;44.01;101932.00;6273156;28;20049;-78
2022/03/11 10:12:42;;;;;;;6.50;2.55;;;;;;;4.81;44.73;101924.91;6271575;28;20436;-75
2022/03/11 10:15:45;;;;;;;8.18;3.33;;;;;;;5.00;43.90;101930.81;6287388;28;20065;-76
2022/03/11 10:18:54;;;;;;;5.07;2.33;;;;;;;5.11;41.08;101941.09;6282634;28;20056;-75
2022/03/11 10:21:59;;;;;;;5.88;2.53;;;;;;;5.24;41.48;101927.03;6286862;28;20526;-76
2022/03/11 10:25:06;;;;;;;14.65;2.92;;;;;;;5.32;41.90;101925.19;6293632;28;20048;-75
2022/03/11 10:28:09;;;;;;;7.55;2.45;;;;;;;5.37;39.12;101918.19;6290880;28;20044;-76
2022/03/11 10:31:12;;;;;;;3.97;2.20;;;;;;;5.45;40.72;101918.06;6294507;28;20496;-76
2022/03/11 10:34:15;;;;;;;7.13;2.50;;;;;;;5.51;39.72;101916.25;6295807;28;20045;-76
2022/03/11 10:37:17;;;;;;;8.25;2.30;;;;;;;5.65;39.14;101905.63;6295908;28;20052;-76
2022/03/11 10:40:19;;;;;;;6.43;2.00;;;;;;;5.71;40.19;101907.28;6298482;28;20049;-75
2022/03/11 10:43:23;;;;;;;6.15;2.17;;;;;;;6.01;38.56;101899.03;6300954;28;20053;-76
2022/03/11 10:46:26;;;;;;;5.30;2.30;;;;;;;6.10;39.68;101883.22;6300700;28;20044;-76
2022/03/11 10:49:31;;;;;;;6.15;2.45;;;;;;;6.17;38.86;101881.34;6302114;28;20135;-76
2022/03/11 10:52:34;;;;;;;5.10;2.22;;;;;;;6.27;39.74;101875.13;6299568;28;20045;-77
2022/03/11 10:55:39;;;;;;;4.63;1.95;;;;;;;6.53;36.73;101860.72;6297066;28;20059;-76
2022/03/11 10:58:40;;;;;;;9.65;2.35;;;;;;;6.54;35.96;101860.69;6293990;28;20052;-76
2022/03/11 11:01:44;;;;;;;4.70;2.25;;;;;;;6.61;36.54;101861.44;6284080;28;20059;-76
2022/03/11 11:04:46;;;;;;;5.07;2.33;;;;;;;6.68;36.13;101863.06;6288749;28;20052;-76
2022/03/11 11:07:49;;;;;;;3.05;1.90;;;;;;;6.75;37.11;101867.25;6299185;28;20048;-76
2022/03/11 11:10:50;;;;;;;4.60;2.00;;;;;;;7.19;35.05;101864.63;6298386;28;20037;-75
2022/03/11 11:13:52;;;;;;;9.23;2.10;;;;;;;7.18;34.85;101863.78;6300491;28;20055;-75
2022/03/11 11:16:56;;;;;;;3.70;1.95;;;;;;;7.29;34.56;101850.47;6296708;28;20045;-74
2022/03/11 11:20:00;;;;;;;5.18;2.22;;;;;;;7.45;33.22;101841.41;6295528;28;20506;-77
2022/03/11 11:23:04;;;;;;;4.60;1.88;;;;;;;7.66;34.62;101839.16;6300531;28;20063;-76
2022/03/11 11:26:09;;;;;;;4.63;1.90;;;;;;;8.06;34.97;101842.53;6299205;28;20056;-77
2022/03/11 11:29:12;;;;;;;5.05;2.22;;;;;;;8.32;35.04;101847.09;6277414;28;20064;-76
2022/03/11 11:32:17;;;;;;;3.80;2.15;;;;;;;8.54;33.91;101838.69;6275077;28;20053;-77
2022/03/11 11:35:26;;;;;;;5.25;1.70;;;;;;;8.80;33.32;101844.06;6280263;28;20049;-77
2022/03/11 11:38:33;;;;;;;4.65;2.15;;;;;;;8.99;33.00;101835.66;6286418;28;20056;-78
2022/03/11 11:41:36;;;;;;;4.93;2.40;;;;;;;9.01;33.26;101820.75;6292990;28;20055;-80
2022/03/11 11:44:39;;;;;;;5.30;2.33;;;;;;;9.19;33.31;101809.72;6295040;28;20041;-78
2022/03/11 11:47:41;;;;;;;6.38;2.88;;;;;;;9.39;32.60;101816.97;6283004;28;20041;-78
2022/03/11 11:50:44;;;;;;;4.00;2.47;;;;;;;9.62;31.45;101796.09;6288195;28;20051;-77
2022/03/11 11:53:51;;;;;;;7.32;2.33;;;;;;;9.80;31.56;101792.00;6295248;28;20106;-77
2022/03/11 11:57:00;;;;;;;3.72;2.40;;;;;;;9.89;31.88;101798.72;6283734;28;20076;-77
2022/03/11 12:00:08;;;;;;;6.22;3.25;;;;;;;10.17;29.69;101785.50;6274587;28;20048;-77
2022/03/11 12:03:12;;;;;;;6.75;2.58;;;;;;;10.24;30.22;101784.41;6279992;28;20048;-78
2022/03/11 12:06:57;;;;;;;4.15;2.03;;;;;;;10.41;30.34;101774.16;6290562;28;20048;-77
2022/03/11 12:10:00;;;;;;;4.05;2.35;;;;;;;10.72;30.20;101778.31;6278839;28;20044;-77
2022/03/11 12:13:04;;;;;;;8.30;2.25;;;;;;;10.69;29.93;101764.41;6299323;28;20515;-77
2022/03/11 12:16:17;;;;;;;4.03;2.00;;;;;;;10.98;30.65;101756.25;6298216;28;20052;-77
2022/03/11 12:19:41;;;;;;;5.28;2.15;;;;;;;11.03;29.98;101759.56;6297942;28;20102;-78
2022/03/11 12:22:52;;;;;;;3.95;1.92;;;;;;;10.96;29.77;101759.88;6293978;28;20049;-78
2022/03/11 12:25:58;;;;;;;4.63;1.90;;;;;;;10.86;28.89;101757.59;6299962;28;20633;-78
2022/03/11 12:29:00;;;;;;;5.00;2.50;;;;;;;11.16;30.81;101747.63;6300233;28;20132;-78
2022/03/11 12:32:02;;;;;;;5.95;2.17;;;;;;;11.49;29.12;101734.06;6297593;28;20049;-78
2022/03/11 12:35:06;;;;;;;2.70;1.95;;;;;;;11.58;29.64;101725.78;6285695;28;20044;-78
2022/03/11 12:38:12;;;;;;;7.95;2.75;;;;;;;11.55;28.82;101725.06;6298776;28;20053;-79
2022/03/11 12:41:14;;;;;;;4.85;2.50;;;;;;;11.68;28.20;101721.84;6299123;28;20480;-78
2022/03/11 12:44:16;;;;;;;7.68;2.20;;;;;;;12.00;28.72;101721.41;6294105;28;20052;-78
2022/03/11 12:47:18;;;;;;;6.75;2.28;;;;;;;12.01;28.42;101737.16;6292292;28;20063;-79
2022/03/11 12:50:21;;;;;;;3.45;2.17;;;;;;;12.00;27.37;101719.63;6287628;28;20045;-78
2022/03/11 12:53:24;;;;;;;4.15;2.33;;;;;;;11.87;28.18;101724.56;6288555;28;20458;-79
2022/03/11 12:56:25;;;;;;;2.75;1.90;;;;;;;12.08;28.24;101714.00;6287248;28;20072;-79
2022/03/11 12:59:28;;;;;;;4.40;1.95;;;;;;;12.11;28.17;101709.47;6287768;28;20048;-79
2022/03/11 13:02:32;;;;;;;4.85;2.72;;;;;;;12.36;27.90;101705.75;6282161;28;20048;-79
2022/03/11 13:05:36;;;;;;;5.03;2.92;;;;;;;12.47;26.10;101706.09;6287233;28;20539;-79
2022/03/11 13:08:38;;;;;;;5.30;2.60;;;;;;;12.38;26.76;101707.38;6300254;28;20678;-78
2022/03/11 13:11:40;;;;;;;5.43;2.72;;;;;;;12.30;26.75;101708.63;6289164;28;20048;-79
2022/03/11 13:14:41;;;;;;;5.05;2.45;;;;;;;12.39;27.47;101692.41;6301843;28;20056;-78
2022/03/11 13:17:44;;;;;;;5.75;2.50;;;;;;;12.50;26.76;101686.66;6299557;28;20047;-79
2022/03/11 13:20:53;;;;;;;7.82;2.35;;;;;;;12.54;26.04;101693.50;6299041;28;20045;-79
2022/03/11 13:23:55;;;;;;;5.82;2.88;;;;;;;12.58;26.43;101688.00;6297329;28;20049;-79
2022/03/11 13:27:05;;;;;;;7.65;2.22;;;;;;;12.77;28.17;101693.28;6294466;28;20044;-79
2022/03/11 13:30:08;;;;;;;5.55;2.38;;;;;;;12.91;26.38;101682.06;6297266;28;20044;-79
2022/03/11 13:33:15;;;;;;;4.35;2.33;;;;;;;12.87;26.62;101685.78;6290140;28;20419;-79
2022/03/11 13:36:20;;;;;;;6.60;2.78;;;;;;;12.69;27.10;101691.00;6294150;28;20049;-79
2022/03/11 13:39:22;;;;;;;6.75;2.55;;;;;;;12.93;27.51;101672.28;6281249;28;20048;-79
2022/03/11 13:42:27;;;;;;;5.78;2.65;;;;;;;13.12;26.50;101669.59;6271522;28;20045;-79
2022/03/11 13:45:29;;;;;;;7.55;2.40;;;;;;;13.02;25.75;101671.84;6272274;28;20493;-79
2022/03/11 13:48:33;;;;;;;4.53;2.47;;;;;;;13.18;26.40;101672.81;6272678;28;20049;-79
2022/03/11 13:51:58;;;;;;;5.18;2.83;;;;;;;13.17;25.67;101681.66;6271414;28;20049;-79
2022/03/11 13:55:05;;;;;;;6.35;2.70;;;;;;;12.89;25.70;101684.75;6266313;28;20053;-80
2022/03/11 13:58:15;;;;;;;6.25;2.80;;;;;;;12.85;27.04;101672.66;6293485;28;20415;-79
2022/03/11 14:01:17;;;;;;;5.05;2.33;;;;;;;13.02;26.05;101669.19;6295763;28;20189;-79
2022/03/11 14:04:21;;;;;;;9.10;2.88;;;;;;;13.04;25.95;101674.41;6297587;28;20055;-80
2022/03/11 14:07:24;;;;;;;6.25;3.28;;;;;;;12.91;26.56;101671.50;6295052;28;20052;-80
2022/03/11 14:10:26;;;;;;;5.10;2.55;;;;;;;12.92;25.91;101674.06;6296067;28;20068;-80
2022/03/11 14:13:34;;;;;;;5.47;2.95;;;;;;;12.97;26.15;101665.06;6296458;28;20075;-80
2022/03/11 14:16:36;;;;;;;6.05;2.33;;;;;;;12.86;26.37;101670.88;6290794;28;20411;-80
2022/03/11 14:19:37;;;;;;;4.68;2.28;;;;;;;12.77;26.84;101661.63;6292280;28;20049;-80